Varna, Illinois
Current Conditions -  °F | °C
As of 2:15 AM on Thursday 29 Jan 2015 (Local Time) from KC75 Reporting Station
Clear Clear  
Wind Chill: 35°   Ceiling: Unl
Heat Index: 38°   Visibility: 10mi
Dew Point: 32°   Wind: 5mph
Humidity: 77%   Direction: 200°SSW
Pressure: 29.69"   Gusts: NA
Location:  41.04°N, 89.23°W
Report Text: KC75 290815Z AUTO 20004KT 10SM CLR 04/00 A2969 RMK AO2 T00361001
Loading
Personal Weather Stations






























Interactive Weather Map New forecast layout! Learn more

10-Day Weather Forecast

Advertisements
Track Severe Weather on mobile